Time;durP1;ratioP1;P1;durP2;ratioP2;P2;SDS_P1;SDS_P2;PMS_P1;PMS_P2;Temp;Humidity;BMP_temperature;BMP_pressure;BME280_temperature;BME280_humidity;BME280_pressure;Samples;Min_cycle;Max_cycle;Signal;HPM_P1;HPM_P2
2023/01/22 00:01:12;;;;;;;174.70;166.27;;;3.10;99.90;;;;;;5035116;28;20853;-59
2023/01/22 00:03:39;;;;;;;164.45;156.48;;;3.10;99.90;;;;;;5030050;28;20802;-60
2023/01/22 00:06:05;;;;;;;170.98;162.63;;;3.00;99.90;;;;;;5028462;28;20504;-59
2023/01/22 00:08:32;;;;;;;173.90;165.23;;;3.10;99.90;;;;;;5029169;28;20472;-60
2023/01/22 00:11:01;;;;;;;170.55;162.20;;;3.10;99.90;;;;;;5030370;28;20394;-60
2023/01/22 00:13:27;;;;;;;169.77;161.52;;;3.10;99.90;;;;;;5031457;28;21107;-60
2023/01/22 00:15:53;;;;;;;170.80;162.43;;;3.10;99.90;;;;;;5030205;28;20410;-60
2023/01/22 00:18:19;;;;;;;167.38;159.10;;;3.10;99.90;;;;;;5031996;28;20684;-59
2023/01/22 00:20:48;;;;;;;167.93;159.60;;;3.10;99.90;;;;;;5033193;28;20652;-60
2023/01/22 00:23:14;;;;;;;172.68;164.38;;;3.00;99.90;;;;;;5031601;28;20383;-58
2023/01/22 00:25:39;;;;;;;167.50;159.30;;;3.00;99.90;;;;;;5031286;28;20894;-59
2023/01/22 00:28:05;;;;;;;164.67;156.80;;;3.00;99.90;;;;;;5029401;28;20663;-60
2023/01/22 00:30:32;;;;;;;164.73;156.83;;;3.10;99.90;;;;;;5029419;28;20495;-61
2023/01/22 00:32:57;;;;;;;166.55;158.52;;;3.10;99.90;;;;;;5029158;28;20489;-59
2023/01/22 00:35:23;;;;;;;159.98;152.15;;;3.10;99.90;;;;;;5030669;28;20470;-60
2023/01/22 00:37:49;;;;;;;167.18;158.90;;;3.10;99.90;;;;;;5028510;28;20506;-60
2023/01/22 00:40:15;;;;;;;166.45;158.45;;;3.10;99.90;;;;;;5030080;28;20429;-59
2023/01/22 00:42:41;;;;;;;160.57;152.93;;;3.10;99.90;;;;;;5032158;28;20813;-58
2023/01/22 00:45:07;;;;;;;163.33;155.53;;;3.10;99.90;;;;;;5029235;28;20425;-58
2023/01/22 00:47:34;;;;;;;166.73;158.50;;;3.10;99.90;;;;;;5031457;28;20667;-59
2023/01/22 00:50:00;;;;;;;157.40;149.80;;;3.10;99.90;;;;;;5030841;28;20666;-60
2023/01/22 00:52:26;;;;;;;161.00;153.18;;;3.10;99.90;;;;;;5030790;28;20398;-59
2023/01/22 00:54:51;;;;;;;177.63;169.03;;;3.10;99.90;;;;;;5030140;28;20383;-60
2023/01/22 00:57:20;;;;;;;181.03;172.43;;;3.10;99.90;;;;;;5031232;28;20395;-60
2023/01/22 00:59:49;;;;;;;163.07;155.17;;;3.10;99.90;;;;;;5031016;28;20495;-59
2023/01/22 01:02:15;;;;;;;158.48;150.85;;;3.10;99.90;;;;;;5031001;28;20391;-57
2023/01/22 01:04:41;;;;;;;173.13;164.90;;;3.10;99.90;;;;;;5030686;28;20452;-59
2023/01/22 01:07:07;;;;;;;169.10;160.77;;;3.10;99.90;;;;;;5032652;28;20405;-56
2023/01/22 01:09:32;;;;;;;159.20;151.50;;;3.10;99.90;;;;;;5032288;28;20712;-60
2023/01/22 01:11:59;;;;;;;159.57;151.77;;;3.10;99.90;;;;;;5032519;28;20390;-60
2023/01/22 01:14:25;;;;;;;170.47;162.37;;;3.10;99.90;;;;;;5031521;28;20383;-60
2023/01/22 01:16:50;;;;;;;171.88;163.52;;;3.10;99.90;;;;;;5030725;28;20460;-60
2023/01/22 01:19:16;;;;;;;156.00;148.43;;;3.00;99.90;;;;;;5030480;28;20419;-59
2023/01/22 01:21:42;;;;;;;169.23;161.00;;;3.00;99.90;;;;;;5031929;28;20417;-60
2023/01/22 01:24:09;;;;;;;155.13;147.68;;;3.10;99.90;;;;;;5031680;28;20406;-60
2023/01/22 01:26:36;;;;;;;170.02;161.77;;;3.10;99.90;;;;;;5030381;28;20643;-60
2023/01/22 01:29:03;;;;;;;164.25;156.35;;;3.10;99.90;;;;;;5031762;28;20481;-61
2023/01/22 01:31:29;;;;;;;170.43;162.20;;;3.10;99.90;;;;;;5031302;28;20414;-60
2023/01/22 01:33:55;;;;;;;169.88;161.77;;;3.10;99.90;;;;;;5033373;28;20399;-59
2023/01/22 01:36:23;;;;;;;160.63;153.03;;;3.10;99.90;;;;;;5032883;28;20395;-61
2023/01/22 01:38:50;;;;;;;159.00;151.32;;;3.10;99.90;;;;;;5032238;28;20745;-61
2023/01/22 01:41:22;;;;;;;165.82;157.75;;;3.10;99.90;;;;;;5033053;28;20383;-61
2023/01/22 01:44:05;;;;;;;170.07;161.98;;;3.10;99.90;;;;;;5031900;28;20767;-60
2023/01/22 01:46:33;;;;;;;166.45;158.35;;;3.10;99.90;;;;;;5032245;28;20766;-61
2023/01/22 01:48:58;;;;;;;166.20;158.18;;;3.10;99.90;;;;;;5033579;28;20802;-58
2023/01/22 01:51:31;;;;;;;164.10;156.20;;;3.10;99.90;;;;;;5032781;28;20393;-60
2023/01/22 01:53:59;;;;;;;159.10;151.40;;;3.10;99.90;;;;;;5032811;28;20417;-58
2023/01/22 01:56:33;;;;;;;163.80;155.90;;;3.10;99.90;;;;;;5032913;28;20455;-60
2023/01/22 01:59:03;;;;;;;161.25;153.50;;;3.10;99.90;;;;;;5034406;28;20739;-58
2023/01/22 02:01:29;;;;;;;157.82;150.15;;;3.10;99.90;;;;;;5030303;28;20547;-60
2023/01/22 02:03:56;;;;;;;162.13;154.38;;;3.10;99.90;;;;;;5030052;28;20653;-60
2023/01/22 02:06:21;;;;;;;159.55;151.82;;;3.10;99.90;;;;;;5029818;28;20383;-61
2023/01/22 02:08:50;;;;;;;161.40;153.57;;;3.00;99.90;;;;;;5030059;28;20395;-61
2023/01/22 02:11:17;;;;;;;159.57;151.90;;;3.00;99.90;;;;;;5032332;28;20680;-61
2023/01/22 02:13:48;;;;;;;161.90;154.00;;;3.00;99.90;;;;;;5029472;28;20386;-60
2023/01/22 02:16:14;;;;;;;168.68;160.50;;;3.00;99.90;;;;;;5029182;28;20402;-61
2023/01/22 02:18:39;;;;;;;158.48;150.85;;;3.00;99.90;;;;;;5031813;28;20415;-60
2023/01/22 02:21:51;;;;;;;162.83;154.83;;;3.00;99.90;;;;;;5030120;28;20446;-59
2023/01/22 02:24:16;;;;;;;164.30;156.35;;;3.00;99.90;;;;;;5009652;28;20402;-60
2023/01/22 02:26:44;;;;;;;168.30;160.07;;;3.00;99.90;;;;;;5031655;28;20382;-59
2023/01/22 02:29:12;;;;;;;160.35;152.65;;;3.00;99.90;;;;;;5033086;28;20383;-60
2023/01/22 02:31:39;;;;;;;169.52;161.38;;;3.00;99.90;;;;;;5032869;28;20457;-59
2023/01/22 02:34:07;;;;;;;164.53;156.63;;;3.00;99.90;;;;;;5032943;28;20518;-59
2023/01/22 02:36:35;;;;;;;159.98;152.13;;;3.00;99.90;;;;;;5033382;28;20730;-60
2023/01/22 02:39:01;;;;;;;158.55;150.88;;;3.00;99.90;;;;;;5033423;28;20830;-59
2023/01/22 02:41:26;;;;;;;166.90;158.77;;;3.00;99.90;;;;;;5031971;28;20391;-60
2023/01/22 02:43:52;;;;;;;163.17;155.27;;;3.00;99.90;;;;;;5032671;28;20477;-61
2023/01/22 02:46:18;;;;;;;156.20;148.48;;;3.10;99.90;;;;;;5031755;28;20466;-61
2023/01/22 02:48:44;;;;;;;162.13;154.18;;;3.00;99.90;;;;;;5032693;28;20399;-60
2023/01/22 02:51:09;;;;;;;154.07;146.57;;;3.00;99.90;;;;;;5031581;28;20430;-61
2023/01/22 02:53:35;;;;;;;164.13;156.10;;;2.90;99.90;;;;;;5030522;28;20394;-57
2023/01/22 02:56:05;;;;;;;153.98;146.38;;;2.90;99.90;;;;;;5031041;28;20391;-60
2023/01/22 02:58:32;;;;;;;157.02;149.38;;;3.00;99.90;;;;;;5032055;28;20454;-58
2023/01/22 03:01:20;;;;;;;160.88;153.07;;;3.00;99.90;;;;;;5032191;28;20449;-59
2023/01/22 03:03:51;;;;;;;161.77;153.95;;;3.00;99.90;;;;;;5032473;28;20435;-60
2023/01/22 03:06:20;;;;;;;153.68;146.07;;;3.00;99.90;;;;;;5031184;28;20421;-60
2023/01/22 03:08:52;;;;;;;158.52;150.90;;;3.00;99.90;;;;;;5031562;28;20383;-60
2023/01/22 03:11:18;;;;;;;160.30;152.48;;;3.00;99.90;;;;;;5031748;28;20391;-61
2023/01/22 03:21:56;;;;;;;143.23;136.25;;;2.90;99.90;;;;;;5033281;28;20521;-59
2023/01/22 03:24:22;;;;;;;151.60;144.27;;;2.90;99.90;;;;;;5031118;28;20429;-60
2023/01/22 03:26:47;;;;;;;144.40;137.33;;;3.00;99.90;;;;;;5031907;28;20927;-60
2023/01/22 03:29:13;;;;;;;148.60;141.43;;;3.00;99.90;;;;;;5031291;28;20387;-58
2023/01/22 03:31:38;;;;;;;154.23;146.73;;;3.00;99.90;;;;;;5030919;28;20825;-60
2023/01/22 03:34:04;;;;;;;152.23;144.75;;;3.00;99.90;;;;;;5030256;28;20456;-59
2023/01/22 03:36:30;;;;;;;154.90;147.32;;;3.00;99.90;;;;;;5030352;28;20683;-58
2023/01/22 03:38:55;;;;;;;151.57;144.27;;;3.00;99.90;;;;;;5031303;28;20442;-58
2023/01/22 03:41:21;;;;;;;152.63;145.23;;;3.00;99.90;;;;;;5030710;28;20402;-60
2023/01/22 03:43:46;;;;;;;155.57;148.02;;;3.00;99.90;;;;;;5031406;28;20398;-60
2023/01/22 03:46:17;;;;;;;152.23;144.83;;;3.00;99.90;;;;;;5031419;28;20447;-58
2023/01/22 03:48:43;;;;;;;152.82;145.38;;;3.00;99.90;;;;;;5031337;28;20434;-59
2023/01/22 03:51:14;;;;;;;154.60;146.98;;;3.00;99.90;;;;;;5030795;28;20430;-60
2023/01/22 03:53:41;;;;;;;164.95;156.90;;;3.00;99.90;;;;;;5029615;28;20464;-61
2023/01/22 03:56:12;;;;;;;149.65;142.25;;;3.00;99.90;;;;;;5030056;28;20482;-60
2023/01/22 03:58:38;;;;;;;149.82;142.35;;;3.00;99.90;;;;;;5029135;28;20407;-60
2023/01/22 04:01:10;;;;;;;154.77;147.30;;;3.10;99.90;;;;;;5030051;28;20417;-61
2023/01/22 04:03:36;;;;;;;155.57;147.83;;;3.10;99.90;;;;;;5029941;28;20573;-60
2023/01/22 04:06:03;;;;;;;148.67;141.27;;;3.00;99.90;;;;;;5028839;28;20763;-60
2023/01/22 04:08:30;;;;;;;150.33;142.93;;;3.00;99.90;;;;;;5029667;28;20469;-61
2023/01/22 04:10:57;;;;;;;147.75;140.40;;;3.00;99.90;;;;;;5028183;28;20414;-60
2023/01/22 04:13:24;;;;;;;151.35;143.95;;;3.00;99.90;;;;;;5028578;28;20841;-60
2023/01/22 04:15:49;;;;;;;150.85;143.35;;;3.00;99.90;;;;;;5030333;28;20402;-59
2023/01/22 04:18:15;;;;;;;155.33;147.83;;;3.00;99.90;;;;;;5029591;28;20490;-60
2023/01/22 04:20:40;;;;;;;147.00;139.95;;;3.00;99.90;;;;;;5030259;28;20393;-61
2023/01/22 04:23:07;;;;;;;152.93;145.37;;;3.00;99.90;;;;;;5029966;28;20720;-60
2023/01/22 04:25:33;;;;;;;145.95;138.75;;;3.00;99.90;;;;;;5030449;28;20460;-60
2023/01/22 04:27:59;;;;;;;155.70;148.02;;;3.00;99.90;;;;;;5030687;28;20617;-58
2023/01/22 04:30:25;;;;;;;155.68;148.05;;;3.00;99.90;;;;;;5031671;28;20652;-59
2023/01/22 04:32:50;;;;;;;162.80;154.83;;;3.00;99.90;;;;;;5032084;28;20401;-60
2023/01/22 04:35:16;;;;;;;160.00;152.17;;;3.10;99.90;;;;;;5031858;28;20456;-61
2023/01/22 04:37:41;;;;;;;157.57;149.73;;;3.00;99.90;;;;;;5031962;28;20418;-58
2023/01/22 04:40:08;;;;;;;164.60;156.50;;;3.00;99.90;;;;;;5034186;28;20482;-60
2023/01/22 04:42:34;;;;;;;157.73;149.93;;;3.00;99.90;;;;;;5034626;28;20475;-59
2023/01/22 04:44:59;;;;;;;158.13;150.43;;;3.00;99.90;;;;;;5032820;28;20902;-60
2023/01/22 04:47:25;;;;;;;151.43;144.03;;;3.00;99.90;;;;;;5034779;28;20466;-60
2023/01/22 04:49:50;;;;;;;155.37;147.73;;;3.00;99.90;;;;;;5033732;28;20489;-61
2023/01/22 04:52:17;;;;;;;159.25;151.32;;;3.00;99.90;;;;;;5035074;28;20391;-61
2023/01/22 04:58:04;;;;;;;161.23;153.43;;;3.10;99.90;;;;;;5036076;28;20406;-58
2023/01/22 05:00:30;;;;;;;160.47;152.60;;;3.10;99.90;;;;;;5034368;28;20399;-60
2023/01/22 05:03:00;;;;;;;160.07;152.23;;;3.10;99.90;;;;;;5034396;28;20387;-60
2023/01/22 05:05:26;;;;;;;156.10;148.50;;;3.10;99.90;;;;;;5033877;28;20714;-61
2023/01/22 05:07:52;;;;;;;142.60;135.55;;;3.10;99.90;;;;;;5033010;28;20814;-60
2023/01/22 05:10:18;;;;;;;159.80;151.90;;;3.10;99.90;;;;;;5033001;28;20399;-60
2023/01/22 05:12:44;;;;;;;148.85;141.57;;;3.10;99.90;;;;;;5032832;28;20441;-60
2023/01/22 05:15:09;;;;;;;158.45;150.77;;;3.10;99.90;;;;;;5033292;28;20427;-60
2023/01/22 05:17:35;;;;;;;158.25;150.32;;;3.10;99.90;;;;;;5034100;28;20379;-60
2023/01/22 05:20:01;;;;;;;153.47;146.03;;;3.10;99.90;;;;;;5031371;28;20821;-60
2023/01/22 05:22:26;;;;;;;158.73;150.93;;;3.10;99.90;;;;;;5031185;28;20423;-60
2023/01/22 05:24:52;;;;;;;148.30;141.07;;;3.10;99.90;;;;;;5030737;28;20395;-58
2023/01/22 05:27:17;;;;;;;148.48;141.27;;;3.10;99.90;;;;;;5032877;28;20391;-60
2023/01/22 05:29:43;;;;;;;138.23;131.23;;;3.10;99.90;;;;;;5032724;28;20395;-60
2023/01/22 05:32:08;;;;;;;151.97;144.47;;;3.00;99.90;;;;;;5030743;28;20710;-59
2023/01/22 05:34:34;;;;;;;151.05;143.52;;;3.10;99.90;;;;;;5031434;28;20566;-59
2023/01/22 05:36:59;;;;;;;150.30;142.73;;;3.10;99.90;;;;;;5032445;28;20394;-60
2023/01/22 05:39:25;;;;;;;155.93;148.23;;;3.00;99.90;;;;;;5031681;28;20398;-61
2023/01/22 05:41:51;;;;;;;149.13;141.47;;;3.10;99.90;;;;;;5032431;28;20468;-58
2023/01/22 05:44:16;;;;;;;149.00;141.65;;;3.10;99.90;;;;;;5032457;28;20395;-58
2023/01/22 05:46:42;;;;;;;152.23;144.88;;;3.00;99.90;;;;;;5031885;28;20415;-60
2023/01/22 05:49:07;;;;;;;150.47;143.03;;;3.10;99.90;;;;;;5030392;28;20545;-60
2023/01/22 05:51:33;;;;;;;150.37;142.83;;;3.10;99.90;;;;;;5030988;28;20391;-58
2023/01/22 05:53:59;;;;;;;137.68;130.85;;;3.10;99.90;;;;;;5031858;28;20383;-60
2023/01/22 05:56:24;;;;;;;149.88;142.45;;;3.10;99.90;;;;;;5029493;28;20391;-61
2023/01/22 05:58:50;;;;;;;158.93;150.82;;;3.10;99.90;;;;;;5027721;28;20407;-61
2023/01/22 06:01:16;;;;;;;165.53;157.30;;;3.20;99.90;;;;;;5027423;28;20398;-60
2023/01/22 06:03:42;;;;;;;174.50;165.97;;;3.10;99.90;;;;;;5028178;28;20528;-59
2023/01/22 06:06:11;;;;;;;168.05;159.70;;;3.10;99.90;;;;;;5030531;28;20375;-59
2023/01/22 06:08:37;;;;;;;164.23;156.10;;;3.20;99.90;;;;;;5030030;28;20681;-58
2023/01/22 06:11:09;;;;;;;174.30;165.30;;;3.10;99.90;;;;;;5030551;28;20505;-60
2023/01/22 06:13:35;;;;;;;164.57;156.38;;;3.20;99.90;;;;;;5031001;28;20383;-60
2023/01/22 06:16:01;;;;;;;174.70;165.88;;;3.10;99.90;;;;;;5030330;28;20391;-59
2023/01/22 06:18:27;;;;;;;170.32;161.98;;;3.20;99.90;;;;;;5031140;28;20537;-59
2023/01/22 06:20:57;;;;;;;168.00;159.63;;;3.20;99.90;;;;;;5030186;28;20391;-55
2023/01/22 06:23:24;;;;;;;168.67;160.33;;;3.20;99.90;;;;;;5030724;28;20387;-59
2023/01/22 06:25:55;;;;;;;163.73;155.57;;;3.10;99.90;;;;;;5030759;28;20509;-59
2023/01/22 06:28:21;;;;;;;180.05;171.10;;;3.20;99.90;;;;;;5031806;28;20693;-58
2023/01/22 06:30:47;;;;;;;169.07;160.70;;;3.20;99.90;;;;;;5030165;28;20762;-59
2023/01/22 06:33:12;;;;;;;166.38;158.32;;;3.20;99.90;;;;;;5029517;28;20415;-59
2023/01/22 06:35:38;;;;;;;171.85;163.38;;;3.30;99.90;;;;;;5030537;28;20383;-60
2023/01/22 06:38:04;;;;;;;165.07;156.80;;;3.30;99.90;;;;;;5029766;28;20838;-59
2023/01/22 06:40:30;;;;;;;168.17;159.73;;;3.20;99.90;;;;;;5029006;28;20474;-59
2023/01/22 06:42:56;;;;;;;170.27;161.63;;;3.30;99.90;;;;;;5029961;28;20407;-61
2023/01/22 06:45:22;;;;;;;164.63;156.38;;;3.30;99.90;;;;;;5030104;28;20814;-58
2023/01/22 06:47:48;;;;;;;162.60;154.30;;;3.30;99.90;;;;;;5031722;28;20865;-60
2023/01/22 06:50:14;;;;;;;163.07;154.82;;;3.30;99.90;;;;;;5030276;28;20803;-60
2023/01/22 06:52:40;;;;;;;158.02;150.13;;;3.30;99.90;;;;;;5030465;28;20457;-60
2023/01/22 06:55:06;;;;;;;145.27;137.82;;;3.30;99.90;;;;;;5029807;28;20482;-56
2023/01/22 06:57:31;;;;;;;154.65;146.63;;;3.30;99.90;;;;;;5030518;28;20414;-60
2023/01/22 06:59:57;;;;;;;157.07;149.10;;;3.30;99.90;;;;;;5029675;28;20399;-59
2023/01/22 07:02:22;;;;;;;151.67;143.87;;;3.30;99.90;;;;;;5028681;28;20407;-60
2023/01/22 07:04:48;;;;;;;148.52;140.82;;;3.30;99.90;;;;;;5028669;28;20468;-61
2023/01/22 07:07:14;;;;;;;148.30;140.63;;;3.40;99.90;;;;;;5029057;28;20672;-61
2023/01/22 07:09:39;;;;;;;143.87;136.37;;;3.30;99.90;;;;;;5027461;28;20466;-61
2023/01/22 07:12:05;;;;;;;141.82;134.63;;;3.30;99.90;;;;;;5026868;28;20679;-60
2023/01/22 07:14:31;;;;;;;153.80;145.60;;;3.30;99.90;;;;;;5025847;28;20391;-58
2023/01/22 07:16:56;;;;;;;147.47;139.67;;;3.30;99.90;;;;;;5027019;28;20437;-60
2023/01/22 07:19:22;;;;;;;153.85;145.85;;;3.30;99.90;;;;;;5027426;28;20418;-60
2023/01/22 07:21:48;;;;;;;150.43;142.48;;;3.30;99.90;;;;;;5027523;28;20379;-62
2023/01/22 07:24:14;;;;;;;151.18;143.23;;;3.30;99.90;;;;;;5027901;28;20399;-61
2023/01/22 07:26:39;;;;;;;153.57;145.43;;;3.30;99.90;;;;;;5026661;28;20410;-58
2023/01/22 07:29:05;;;;;;;156.65;148.50;;;3.30;99.90;;;;;;5028321;28;20387;-61
2023/01/22 07:31:31;;;;;;;161.10;152.50;;;3.30;99.90;;;;;;5029520;28;20399;-60
2023/01/22 07:33:57;;;;;;;159.50;151.18;;;3.40;99.90;;;;;;5028472;28;20391;-60
2023/01/22 07:36:23;;;;;;;164.55;155.93;;;3.40;99.90;;;;;;5025382;28;20470;-59
2023/01/22 07:38:48;;;;;;;164.18;155.68;;;3.30;99.90;;;;;;5023664;28;20687;-59
2023/01/22 07:41:14;;;;;;;173.07;163.75;;;3.40;99.90;;;;;;5024142;28;20873;-60
2023/01/22 07:43:40;;;;;;;166.27;157.57;;;3.40;99.90;;;;;;5023805;28;20437;-60
2023/01/22 07:46:07;;;;;;;177.00;167.73;;;3.40;99.90;;;;;;5021841;28;20469;-60
2023/01/22 07:48:32;;;;;;;170.00;160.90;;;3.40;99.90;;;;;;5022257;28;20415;-60
2023/01/22 07:50:59;;;;;;;163.10;154.63;;;3.40;99.90;;;;;;5025310;28;20425;-60
2023/01/22 07:53:25;;;;;;;168.60;159.98;;;3.50;99.90;;;;;;5026227;28;20383;-60
2023/01/22 07:55:50;;;;;;;177.23;167.87;;;3.40;99.90;;;;;;5023895;28;20399;-61
2023/01/22 07:58:16;;;;;;;182.03;172.33;;;3.50;99.90;;;;;;5025320;28;20501;-61
2023/01/22 08:00:42;;;;;;;165.43;156.90;;;3.50;99.90;;;;;;5024243;28;20655;-61
2023/01/22 08:03:12;;;;;;;172.70;163.48;;;3.40;99.90;;;;;;5023639;28;20622;-60
2023/01/22 08:05:38;;;;;;;184.77;174.93;;;3.40;99.90;;;;;;5023175;28;20845;-60
2023/01/22 08:08:05;;;;;;;178.43;169.18;;;3.40;99.90;;;;;;5022077;28;20517;-59
2023/01/22 08:10:30;;;;;;;172.68;163.65;;;3.40;99.90;;;;;;5021551;28;20375;-60
2023/01/22 08:12:56;;;;;;;171.97;162.83;;;3.40;99.90;;;;;;5023213;28;20462;-60
2023/01/22 08:15:22;;;;;;;174.43;165.35;;;3.50;99.90;;;;;;5026251;28;20385;-60
2023/01/22 08:17:49;;;;;;;175.43;166.20;;;3.50;99.90;;;;;;5026797;28;20422;-58
2023/01/22 08:20:16;;;;;;;180.00;170.68;;;3.50;99.90;;;;;;5027875;28;20375;-61
2023/01/22 08:22:42;;;;;;;188.38;178.68;;;3.50;99.90;;;;;;5028614;28;20482;-61
2023/01/22 08:25:08;;;;;;;199.85;189.63;;;3.50;99.90;;;;;;5027616;28;20442;-61
2023/01/22 08:27:34;;;;;;;199.00;188.77;;;3.60;99.90;;;;;;5025937;28;20383;-60
2023/01/22 08:30:00;;;;;;;194.38;184.57;;;3.60;99.90;;;;;;5027124;28;20394;-61
2023/01/22 08:32:25;;;;;;;181.38;171.95;;;3.60;99.90;;;;;;5032545;28;20651;-60
2023/01/22 08:34:53;;;;;;;187.18;177.32;;;3.60;99.90;;;;;;5031815;28;20387;-60
2023/01/22 08:37:22;;;;;;;187.40;177.65;;;3.60;99.90;;;;;;5031801;28;20378;-60
2023/01/22 08:39:48;;;;;;;200.95;190.63;;;3.60;99.90;;;;;;5029259;28;20402;-58
2023/01/22 08:42:14;;;;;;;180.85;171.45;;;3.60;99.90;;;;;;5031038;28;20386;-58
2023/01/22 08:44:40;;;;;;;254.15;241.40;;;3.70;99.90;;;;;;5030857;28;20375;-57
2023/01/22 08:47:05;;;;;;;215.27;204.40;;;3.70;99.90;;;;;;5031860;28;20417;-58
2023/01/22 08:49:31;;;;;;;217.38;206.55;;;3.80;99.90;;;;;;5033396;28;20387;-60
2023/01/22 08:51:57;;;;;;;182.10;173.13;;;3.90;99.90;;;;;;5028408;28;20810;-60
2023/01/22 08:54:25;;;;;;;166.07;157.68;;;3.80;99.90;;;;;;5026247;28;22548;-60
2023/01/22 08:56:50;;;;;;;170.98;162.15;;;3.80;99.90;;;;;;5026611;28;20826;-60
2023/01/22 08:59:16;;;;;;;158.47;150.53;;;3.70;99.90;;;;;;5028369;28;20472;-58
2023/01/22 09:01:42;;;;;;;163.80;155.57;;;3.80;99.90;;;;;;5029966;28;20401;-58
2023/01/22 09:04:09;;;;;;;165.83;157.40;;;3.70;99.90;;;;;;5030472;28;20538;-59
2023/01/22 09:06:35;;;;;;;154.88;146.93;;;3.70;99.90;;;;;;5030523;28;20488;-60
2023/01/22 09:09:02;;;;;;;152.55;144.70;;;3.70;99.90;;;;;;5031409;28;20383;-62
2023/01/22 09:11:28;;;;;;;154.05;146.30;;;3.70;99.90;;;;;;5030782;28;20395;-60
2023/01/22 09:13:55;;;;;;;149.18;141.52;;;3.70;99.90;;;;;;5029460;28;21018;-60
2023/01/22 09:16:22;;;;;;;141.40;134.40;;;3.70;99.90;;;;;;5026412;28;20398;-60
2023/01/22 09:18:47;;;;;;;144.40;137.13;;;3.70;99.90;;;;;;5030546;28;20826;-58
2023/01/22 09:21:13;;;;;;;145.23;137.70;;;3.70;99.90;;;;;;5032951;28;20398;-60
2023/01/22 09:23:39;;;;;;;141.63;134.57;;;3.70;99.90;;;;;;5031746;28;20445;-60
2023/01/22 09:26:04;;;;;;;147.20;139.63;;;3.70;99.90;;;;;;5030925;28;20392;-61
2023/01/22 09:28:30;;;;;;;135.50;128.38;;;3.70;99.90;;;;;;5029831;28;20393;-60
2023/01/22 09:30:56;;;;;;;135.77;128.70;;;3.70;99.90;;;;;;5031341;28;20402;-60
2023/01/22 09:33:21;;;;;;;143.73;136.43;;;3.80;99.90;;;;;;5029687;28;20691;-60
2023/01/22 09:35:47;;;;;;;136.50;129.60;;;3.80;99.90;;;;;;5030137;28;20477;-60
2023/01/22 09:38:13;;;;;;;144.10;136.77;;;3.80;99.90;;;;;;5028899;28;20430;-60
2023/01/22 09:40:44;;;;;;;134.15;127.38;;;3.80;99.90;;;;;;5029807;28;20387;-61
2023/01/22 09:43:31;;;;;;;135.38;128.40;;;3.80;99.90;;;;;;5030814;28;20486;-59
2023/01/22 09:46:07;;;;;;;135.05;128.10;;;3.80;99.90;;;;;;5031637;28;20443;-61
2023/01/22 09:48:42;;;;;;;138.23;131.13;;;3.80;99.90;;;;;;5031432;28;20434;-60
2023/01/22 09:51:13;;;;;;;136.98;130.00;;;3.80;99.90;;;;;;5030305;28;20391;-60
2023/01/22 09:53:39;;;;;;;133.23;126.20;;;3.80;99.90;;;;;;5030053;28;20421;-61
2023/01/22 09:56:06;;;;;;;148.70;141.20;;;3.80;99.90;;;;;;5030762;28;20916;-58
2023/01/22 09:58:34;;;;;;;144.80;137.52;;;3.80;99.90;;;;;;5029714;28;20398;-58
2023/01/22 10:01:03;;;;;;;196.65;186.82;;;3.90;99.90;;;;;;5028961;28;20807;-58
2023/01/22 10:03:42;;;;;;;175.60;166.73;;;4.10;99.90;;;;;;5031432;28;20399;-61
2023/01/22 10:06:12;;;;;;;177.45;168.75;;;4.10;99.90;;;;;;5032181;28;20612;-61
2023/01/22 10:09:10;;;;;;;183.82;174.65;;;4.10;99.90;;;;;;5030324;28;20387;-60
2023/01/22 10:11:37;;;;;;;186.82;177.38;;;4.10;99.90;;;;;;5029562;28;20895;-61
2023/01/22 10:14:06;;;;;;;177.10;168.25;;;4.10;99.90;;;;;;5028506;28;20391;-61
2023/01/22 10:16:32;;;;;;;168.77;160.20;;;4.10;99.90;;;;;;5029852;28;20413;-60
2023/01/22 10:19:24;;;;;;;176.43;167.43;;;4.10;99.90;;;;;;5030749;28;20418;-59
2023/01/22 10:22:03;;;;;;;172.82;164.23;;;4.20;99.90;;;;;;5032729;28;20732;-60
2023/01/22 10:24:29;;;;;;;159.93;151.93;;;4.10;99.90;;;;;;5031090;28;20379;-59
2023/01/22 10:26:57;;;;;;;177.85;168.80;;;4.20;99.90;;;;;;5031039;28;20393;-60
2023/01/22 10:29:31;;;;;;;163.13;154.70;;;4.10;99.90;;;;;;5029738;28;20387;-60
2023/01/22 10:31:59;;;;;;;178.10;169.07;;;4.20;99.90;;;;;;5029472;28;20394;-61
2023/01/22 10:34:32;;;;;;;170.38;161.73;;;4.20;99.90;;;;;;5026863;28;20418;-60
2023/01/22 10:37:22;;;;;;;176.20;167.35;;;4.20;99.90;;;;;;5022637;28;20785;-61
2023/01/22 10:39:49;;;;;;;172.82;163.90;;;4.20;99.90;;;;;;5055326;28;20709;-58
2023/01/22 10:42:17;;;;;;;182.40;172.98;;;4.20;99.90;;;;;;5023103;28;20379;-60
2023/01/22 10:44:43;;;;;;;179.68;170.50;;;4.20;99.90;;;;;;5021687;28;20391;-58
2023/01/22 10:47:19;;;;;;;175.52;166.63;;;4.20;99.90;;;;;;5022159;28;20481;-60
2023/01/22 10:49:45;;;;;;;179.70;170.85;;;4.30;99.90;;;;;;5023223;28;20590;-60
2023/01/22 10:52:21;;;;;;;180.70;171.55;;;4.30;99.90;;;;;;5023551;28;20418;-60
2023/01/22 10:54:55;;;;;;;176.75;167.73;;;4.30;99.90;;;;;;5023829;28;20618;-59
2023/01/22 10:57:26;;;;;;;181.43;172.33;;;4.30;99.90;;;;;;5024052;28;20910;-59
2023/01/22 11:00:05;;;;;;;180.55;171.38;;;4.30;99.90;;;;;;5022767;28;20413;-61
2023/01/22 11:02:33;;;;;;;186.00;176.60;;;4.30;99.90;;;;;;5023990;28;20829;-60
2023/01/22 11:05:13;;;;;;;175.45;166.57;;;4.30;99.90;;;;;;5023613;28;20399;-58
2023/01/22 11:07:39;;;;;;;183.52;174.30;;;4.30;99.90;;;;;;5024672;28;20395;-60
2023/01/22 11:10:20;;;;;;;180.02;170.77;;;4.30;99.90;;;;;;5024608;28;20395;-59
2023/01/22 11:12:56;;;;;;;177.38;168.52;;;4.30;99.90;;;;;;5023681;28;20386;-59
2023/01/22 11:15:21;;;;;;;174.75;165.98;;;4.30;99.90;;;;;;5023128;28;20763;-60
2023/01/22 11:17:54;;;;;;;179.93;170.95;;;4.30;99.90;;;;;;5022890;28;20861;-59
2023/01/22 11:20:44;;;;;;;189.93;180.45;;;4.30;99.90;;;;;;5023722;28;20805;-59
2023/01/22 11:23:10;;;;;;;191.77;182.15;;;4.40;99.90;;;;;;5022174;28;20387;-59
2023/01/22 11:25:48;;;;;;;184.63;175.27;;;4.40;99.90;;;;;;5021203;28;20674;-60
2023/01/22 11:28:21;;;;;;;181.20;171.88;;;4.40;99.90;;;;;;5020613;28;20667;-58
2023/01/22 11:31:16;;;;;;;180.90;171.70;;;4.40;99.90;;;;;;5018948;28;20383;-56
2023/01/22 11:33:47;;;;;;;184.35;175.15;;;4.40;99.90;;;;;;5018109;28;20384;-59
2023/01/22 11:36:23;;;;;;;193.40;183.48;;;4.40;99.90;;;;;;5017400;28;20415;-60
2023/01/22 11:38:56;;;;;;;187.60;177.98;;;4.40;99.90;;;;;;5015121;28;20638;-59
2023/01/22 11:41:30;;;;;;;209.95;199.38;;;4.50;99.90;;;;;;5015008;28;20397;-60
2023/01/22 11:44:11;;;;;;;208.63;198.43;;;4.50;99.90;;;;;;5014877;28;20394;-59
2023/01/22 11:46:48;;;;;;;219.33;208.43;;;4.50;99.90;;;;;;5014546;28;20721;-59
2023/01/22 11:49:45;;;;;;;228.90;217.55;;;4.50;99.90;;;;;;5013285;28;20602;-57
2023/01/22 11:52:29;;;;;;;238.60;226.82;;;4.50;99.90;;;;;;5048921;28;20438;-59
2023/01/22 11:55:04;;;;;;;237.80;225.88;;;4.60;99.90;;;;;;5016931;28;20391;-58
2023/01/22 11:57:36;;;;;;;231.50;220.10;;;4.50;99.90;;;;;;5014839;28;20383;-60
2023/01/22 12:00:31;;;;;;;232.70;221.30;;;4.60;99.90;;;;;;5013907;28;20720;-60
2023/01/22 12:03:15;;;;;;;229.80;218.57;;;4.60;99.90;;;;;;5015512;28;20455;-58
2023/01/22 12:05:55;;;;;;;256.70;244.07;;;4.60;99.90;;;;;;5046871;28;20725;-58
2023/01/22 12:08:41;;;;;;;221.75;210.77;;;4.60;99.90;;;;;;5056974;28;20403;-59
2023/01/22 12:11:30;;;;;;;235.90;224.15;;;4.60;99.90;;;;;;5057596;28;20434;-59
2023/01/22 12:14:09;;;;;;;237.27;225.32;;;4.60;99.90;;;;;;5043529;28;20394;-58
2023/01/22 12:16:49;;;;;;;249.35;236.73;;;4.70;99.90;;;;;;5059431;28;20587;-59
2023/01/22 12:19:43;;;;;;;243.02;231.05;;;4.70;99.90;;;;;;5056970;28;20426;-60
2023/01/22 12:22:26;;;;;;;234.00;222.13;;;4.70;99.90;;;;;;5053683;28;20376;-60
2023/01/22 12:24:54;;;;;;;239.35;227.35;;;4.70;99.90;;;;;;5054765;28;20379;-60
2023/01/22 12:27:25;;;;;;;235.40;223.60;;;4.80;99.90;;;;;;5055673;28;20386;-59
2023/01/22 12:29:58;;;;;;;251.13;238.80;;;4.80;99.90;;;;;;5057124;28;20561;-57
2023/01/22 12:32:27;;;;;;;259.47;246.50;;;4.80;99.90;;;;;;5056645;28;20531;-59
2023/01/22 12:35:05;;;;;;;251.55;238.85;;;4.80;99.90;;;;;;5054080;28;20466;-59
2023/01/22 12:37:41;;;;;;;247.70;235.55;;;4.80;99.90;;;;;;5051919;28;20466;-60